Wilkes Barre Scranton International Airport
KAVP : now visible

Airfield :











YOU CAN JOIN US ON...

 
LOGIN :

Register | Disclaimer

   EN    FR    IT 

 









Legend :    VFR   Marginal VFR   IFR   Intensive IFR   Very Intensive IFR
Visi :
Ceiling :
>= 8 km
>= 3000ft
5 to 8 km
1000 to 3000 ft
1500m to 5 km
500 to 1000 ft
800 to 1500m
200 to 500 ft
< 800m
< 200 ft
Symbols :   Thunderstorms  Fog  Heavy snow  Heavy precipitations  Wind > 20 kt






- Airport Elevation : 962 ft
- IATA code : AVP


KAVP - Wilkes Barre Scranton International

CURRENT METAR :
  • 211554Z 20008KT 10SM BKN027 OVC033 22/15 A3024 RMK AO2 SLP234 T02170150

EXPIRED METARs :
  • 211454Z 20008KT 10SM BKN021 BKN026 19/14 A3026 RMK AO2 SLP241 T01940144 50005
  • 211354Z 19006KT 10SM OVC017 19/15 A3026 RMK AO2 SLP242 T01890150

TAF KAVP
Valid from the 21 at 12:00 until the 22 at 12:00 UTC


211132Z 2112/2212 18005KT P6SM BKN015
FM211600 20008G14KT P6SM FEW040 BKN090
FM220000 21005KT P6SM BKN040
FM220700 VRB03KT P6SM BKN020
KZNY FIR / North America



MET'MAP, your aeronautical weather chart ! - Copyright ORBIFLY December 2007 - Disclaimer

ORBIFLY MET'MAP TEAM :

Programming & Development : Alexandra Zaïnal
Concept & original design : Baudouin d'Aumeries
Assistance for programming : Marc-Olivier Méhu
Technical & hardware support : Manuel Goepfert

Contact : metmap@orbifly.com




SOURCES & CREDITS :

   NOAA       Earth
Advisory